Aeroporto :
LOGIN :

Iscrizione | Disclaimer

   EN    FR    IT 

 










Sommario :    VFR   VFR Marginale   IFR   IFR Intensivo   IFR Molto Intensivo
Visibilità : 
Base nubi : 
>= 8 km
>= 3000ft
5 / 8 km
1000 / 3000 ft
1500m / 5 km
500 / 1000 ft
800 / 1500m
200 / 500 ft
< 800m
< 200 ft
Simboli :   Temporali  Nebbia  Neve Forte  Precipitazioni Forti  Vento > 20 kt
SIGMETs :   Varie  Temporali  Ghiacco  Turbolenza  Onda orograficha  Ceneri Vulcaniche






- Altitudine del aeroporto : 1115 ft
- Codice IATA : GRZ


LOWG - Graz

ULTIMO METAR :
  • 270320Z AUTO VRB02KT 9999 FEW060 M02/M03 Q1006

METARs OBSOLETI :
  • 270250Z AUTO VRB02KT 9000 FEW060 SCT070 M02/M03 Q1005
  • 270220Z AUTO VRB02KT 5000 BR FEW001 M02/M02 Q1005
  • 270150Z AUTO VRB02KT 1000 R17/P1500D R35/P1500D FZBCFG FEW001 M02/M02 Q1005
  • 270120Z AUTO VRB01KT 1100 R17/P1500U R35/1300U FZBCFG FEW001 M01/M02 Q1004
  • 270050Z AUTO 18003KT 0700 R17/0650D R35/P1500D FZFG FEW000 M01/M01 Q1004
  • 270020Z AUTO 14004KT 110V170 2600 1000N R17/0800D R35/P1500U BR FEW000 M02/M02 Q1004

TAF TAF LOWG
Valido dal 27 a 00 ore il 28 a 00 ore UTC


262315Z 2700/2724 VRB05KT 8000 FEW010 TX08/2713Z TNM02/2706Z
PROB40
TEMPO 2700/2707 0500 FZFG BKN002
BECMG 2711/2713 19010KT CAVOK



MetMap, La meteo Aeronautica in un colpo d'occhio ! - Copyright ORBIFLY Dicembre 2007 - Disclaimer

ORBIFLY MET'MAP TEAM :

Programmazione e sviluppo : Alexandra Zaïnal
Concezione : Baudouin d'Aumeries
Aiuto per la programmazione : Marc-Olivier Méhu
Supporto tecnico e logistico : Manuel Goepfert
Aiuto per la traduzione : Arnaldo La Scala

Contatto : metmap@orbifly.com




FONTI E CREDITI :

   NOAA